VHJMU YBCG-YLRE
Flight info
| Callsign | VHJMU |
|---|---|
| Flight time | 2h 26m |
| Altitude | 20000 |
| Route | GOMOL W196 UNVAT/N0274F240 J89 PUDUR/N0273F260 J89 LRE |
| Aircraft | PC12/L-SDFGRWY/S |
Departure
| Time | 2026-04-27 20:48 |
|---|---|
| Airport | Gold Coast Airport (YBCG) |
Arrival
| Time | 2026-04-27 23:14 |
|---|---|
| Airport | Longreach Airport (YLRE) |
| Time | Latitude | Longitude | Altitude | Speed | Heading |
|---|---|---|---|---|---|
| 2026-04-27 20:36 | -28.16128 | 153.50859 | 22 ft | 0 kts | 44° |
| 2026-04-27 20:41 | -28.16121 | 153.50869 | 27 ft | 5 kts | 67° |
| 2026-04-27 20:41 | -28.16145 | 153.50919 | 22 ft | 9 kts | 134° |
| 2026-04-27 20:42 | -28.16195 | 153.50967 | 22 ft | 9 kts | 176° |
| 2026-04-27 20:42 | -28.16220 | 153.50919 | 22 ft | 8 kts | 248° |
| 2026-04-27 20:42 | -28.16241 | 153.50859 | 24 ft | 9 kts | 250° |
| 2026-04-27 20:42 | -28.16266 | 153.50784 | 22 ft | 12 kts | 249° |
| 2026-04-27 20:43 | -28.16310 | 153.50702 | 22 ft | 13 kts | 179° |
| 2026-04-27 20:43 | -28.16387 | 153.50752 | 24 ft | 14 kts | 157° |
| 2026-04-27 20:43 | -28.16471 | 153.50809 | 22 ft | 15 kts | 150° |
| 2026-04-27 20:43 | -28.16564 | 153.50868 | 22 ft | 16 kts | 152° |
| 2026-04-27 20:44 | -28.16666 | 153.50931 | 22 ft | 17 kts | 150° |
| 2026-04-27 20:44 | -28.16773 | 153.51000 | 22 ft | 18 kts | 150° |
| 2026-04-27 20:44 | -28.16885 | 153.51072 | 22 ft | 19 kts | 152° |
| 2026-04-27 20:44 | -28.17002 | 153.51147 | 22 ft | 20 kts | 154° |
| 2026-04-27 20:45 | -28.17122 | 153.51221 | 24 ft | 20 kts | 149° |
| 2026-04-27 20:45 | -28.17240 | 153.51294 | 25 ft | 19 kts | 147° |
| 2026-04-27 20:45 | -28.17354 | 153.51371 | 22 ft | 19 kts | 150° |
| 2026-04-27 20:45 | -28.17463 | 153.51436 | 22 ft | 17 kts | 151° |
| 2026-04-27 20:46 | -28.17556 | 153.51403 | 24 ft | 14 kts | 233° |
| 2026-04-27 20:46 | -28.17594 | 153.51311 | 24 ft | 12 kts | 283° |
| 2026-04-27 20:46 | -28.17514 | 153.51256 | 25 ft | 19 kts | 329° |
| 2026-04-27 20:46 | -28.17303 | 153.51112 | 27 ft | 58 kts | 324° |
| 2026-04-27 20:47 | -28.16820 | 153.50817 | 24 ft | 96 kts | 326° |
| 2026-04-27 20:47 | -28.16186 | 153.50426 | 123 ft | 106 kts | 327° |
| 2026-04-27 20:47 | -28.15496 | 153.50041 | 333 ft | 115 kts | 329° |
| 2026-04-27 20:47 | -28.14747 | 153.49623 | 524 ft | 125 kts | 329° |
| 2026-04-27 20:48 | -28.13894 | 153.49144 | 666 ft | 153 kts | 329° |
| 2026-04-27 20:48 | -28.13268 | 153.48708 | 866 ft | 159 kts | 320° |
| 2026-04-27 20:48 | -28.12212 | 153.47523 | 1414 ft | 164 kts | 304° |
| 2026-04-27 20:48 | -28.11517 | 153.46450 | 1812 ft | 174 kts | 301° |
| 2026-04-27 20:49 | -28.10810 | 153.45297 | 2196 ft | 182 kts | 302° |
| 2026-04-27 20:49 | -28.10073 | 153.44100 | 2575 ft | 189 kts | 302° |
| 2026-04-27 20:49 | -28.09314 | 153.42881 | 2985 ft | 193 kts | 303° |
| 2026-04-27 20:49 | -28.08533 | 153.41631 | 3419 ft | 196 kts | 304° |
| 2026-04-27 20:50 | -28.07742 | 153.40367 | 3875 ft | 197 kts | 304° |
| 2026-04-27 20:50 | -28.06948 | 153.39100 | 4321 ft | 198 kts | 305° |
| 2026-04-27 20:50 | -28.06150 | 153.37825 | 4772 ft | 199 kts | 305° |
| 2026-04-27 20:50 | -28.05346 | 153.36540 | 5252 ft | 201 kts | 306° |
| 2026-04-27 20:51 | -28.04539 | 153.35249 | 5794 ft | 201 kts | 306° |
| 2026-04-27 20:51 | -28.03729 | 153.33954 | 6341 ft | 201 kts | 307° |
| 2026-04-27 20:51 | -28.02920 | 153.32661 | 6870 ft | 201 kts | 307° |
| 2026-04-27 20:51 | -28.02109 | 153.31366 | 7329 ft | 202 kts | 307° |
| 2026-04-27 20:52 | -28.01293 | 153.30065 | 7813 ft | 202 kts | 307° |
| 2026-04-27 20:52 | -28.00477 | 153.28763 | 8337 ft | 202 kts | 307° |
| 2026-04-27 20:52 | -27.99662 | 153.27462 | 8888 ft | 203 kts | 307° |
| 2026-04-27 20:52 | -27.98840 | 153.26151 | 9370 ft | 204 kts | 307° |
| 2026-04-27 20:53 | -27.98018 | 153.24841 | 9832 ft | 205 kts | 307° |
| 2026-04-27 20:53 | -27.97200 | 153.23540 | 10283 ft | 206 kts | 307° |
| 2026-04-27 20:53 | -27.96372 | 153.22221 | 10713 ft | 206 kts | 307° |
| 2026-04-27 20:53 | -27.95538 | 153.20894 | 11130 ft | 207 kts | 306° |
| 2026-04-27 20:54 | -27.93859 | 153.18221 | 11964 ft | 210 kts | 306° |
| 2026-04-27 20:54 | -27.93012 | 153.16875 | 12373 ft | 210 kts | 306° |
| 2026-04-27 20:54 | -27.92159 | 153.15519 | 12761 ft | 212 kts | 306° |
| 2026-04-27 20:55 | -27.91303 | 153.14158 | 13153 ft | 213 kts | 306° |
| 2026-04-27 20:55 | -27.90441 | 153.12787 | 13557 ft | 215 kts | 307° |
| 2026-04-27 20:55 | -27.89569 | 153.11402 | 13946 ft | 216 kts | 307° |
| 2026-04-27 20:55 | -27.88695 | 153.10014 | 14297 ft | 217 kts | 307° |
| 2026-04-27 20:56 | -27.87825 | 153.08632 | 14636 ft | 218 kts | 306° |
| 2026-04-27 20:56 | -27.86942 | 153.07230 | 14981 ft | 220 kts | 306° |
| 2026-04-27 20:56 | -27.86055 | 153.05823 | 15313 ft | 221 kts | 306° |
| 2026-04-27 20:56 | -27.85161 | 153.04403 | 15668 ft | 222 kts | 306° |
| 2026-04-27 20:57 | -27.84264 | 153.02979 | 16038 ft | 223 kts | 306° |
| 2026-04-27 20:57 | -27.83362 | 153.01546 | 16406 ft | 224 kts | 306° |
| 2026-04-27 20:57 | -27.82453 | 153.00104 | 16773 ft | 225 kts | 306° |
| 2026-04-27 20:57 | -27.81544 | 152.98663 | 17177 ft | 223 kts | 306° |
| 2026-04-27 20:58 | -27.80677 | 152.97285 | 17922 ft | 206 kts | 306° |
| 2026-04-27 20:58 | -27.79881 | 152.96017 | 18698 ft | 190 kts | 306° |
| 2026-04-27 20:58 | -27.79151 | 152.94849 | 19389 ft | 175 kts | 306° |
| 2026-04-27 20:58 | -27.78467 | 152.93754 | 20011 ft | 167 kts | 306° |
| 2026-04-27 20:59 | -27.77764 | 152.92638 | 20233 ft | 189 kts | 306° |
| 2026-04-27 20:59 | -27.76942 | 152.91350 | 20250 ft | 213 kts | 306° |
| 2026-04-27 20:59 | -27.76035 | 152.89942 | 20250 ft | 230 kts | 306° |
| 2026-04-27 20:59 | -27.75068 | 152.88436 | 20248 ft | 243 kts | 306° |
| 2026-04-27 21:00 | -27.74057 | 152.86855 | 20247 ft | 253 kts | 306° |
| 2026-04-27 21:00 | -27.73017 | 152.85220 | 20243 ft | 260 kts | 306° |
| 2026-04-27 21:00 | -27.71949 | 152.83537 | 20239 ft | 265 kts | 306° |
| 2026-04-27 21:00 | -27.70867 | 152.81830 | 20236 ft | 269 kts | 306° |
| 2026-04-27 21:01 | -27.69773 | 152.80102 | 20226 ft | 272 kts | 306° |
| 2026-04-27 21:01 | -27.68670 | 152.78362 | 20231 ft | 274 kts | 306° |
| 2026-04-27 21:01 | -27.67560 | 152.76609 | 20238 ft | 275 kts | 306° |
| 2026-04-27 21:01 | -27.66460 | 152.74874 | 20239 ft | 276 kts | 306° |
| 2026-04-27 21:02 | -27.65342 | 152.73112 | 20242 ft | 277 kts | 306° |
| 2026-04-27 21:02 | -27.64223 | 152.71348 | 20242 ft | 277 kts | 306° |
| 2026-04-27 21:02 | -27.63102 | 152.69578 | 20232 ft | 277 kts | 306° |
| 2026-04-27 21:02 | -27.61980 | 152.67804 | 20243 ft | 278 kts | 306° |
| 2026-04-27 21:03 | -27.60856 | 152.66028 | 20241 ft | 278 kts | 306° |
| 2026-04-27 21:03 | -27.59732 | 152.64252 | 20241 ft | 278 kts | 306° |
| 2026-04-27 21:03 | -27.58605 | 152.62472 | 20239 ft | 278 kts | 306° |
| 2026-04-27 21:03 | -27.57479 | 152.60694 | 20243 ft | 279 kts | 306° |
| 2026-04-27 21:04 | -27.56734 | 152.59519 | 20245 ft | 279 kts | 306° |
| 2026-04-27 21:04 | -27.55607 | 152.57742 | 20248 ft | 279 kts | 306° |
| 2026-04-27 21:04 | -27.54477 | 152.55961 | 20248 ft | 279 kts | 306° |
| 2026-04-27 21:04 | -27.53349 | 152.54183 | 20249 ft | 279 kts | 306° |
| 2026-04-27 21:05 | -27.52218 | 152.52403 | 20252 ft | 279 kts | 306° |
| 2026-04-27 21:05 | -27.51089 | 152.50626 | 20253 ft | 279 kts | 306° |
| 2026-04-27 21:05 | -27.49961 | 152.48851 | 20259 ft | 279 kts | 306° |
| 2026-04-27 21:05 | -27.48845 | 152.47096 | 20260 ft | 279 kts | 306° |
| 2026-04-27 21:06 | -27.47703 | 152.45299 | 20260 ft | 279 kts | 306° |
| 2026-04-27 21:06 | -27.46589 | 152.43548 | 20264 ft | 279 kts | 306° |
| 2026-04-27 21:06 | -27.45460 | 152.41775 | 20266 ft | 279 kts | 306° |
| 2026-04-27 21:06 | -27.44328 | 152.39997 | 20269 ft | 279 kts | 306° |
| 2026-04-27 21:07 | -27.43196 | 152.38221 | 20272 ft | 279 kts | 306° |
| 2026-04-27 21:07 | -27.42066 | 152.36448 | 20274 ft | 279 kts | 306° |
| 2026-04-27 21:07 | -27.40936 | 152.34676 | 20274 ft | 279 kts | 306° |
| 2026-04-27 21:07 | -27.39802 | 152.32898 | 20273 ft | 280 kts | 306° |
| 2026-04-27 21:08 | -27.38665 | 152.31115 | 20272 ft | 280 kts | 306° |
| 2026-04-27 21:08 | -27.37529 | 152.29334 | 20274 ft | 280 kts | 306° |
| 2026-04-27 21:08 | -27.36391 | 152.27552 | 20265 ft | 280 kts | 306° |
| 2026-04-27 21:08 | -27.35254 | 152.25772 | 20274 ft | 281 kts | 306° |
| 2026-04-27 21:09 | -27.34112 | 152.23984 | 20264 ft | 281 kts | 306° |
| 2026-04-27 21:09 | -27.32986 | 152.22223 | 20269 ft | 281 kts | 306° |
| 2026-04-27 21:09 | -27.31846 | 152.20439 | 20271 ft | 281 kts | 306° |
| 2026-04-27 21:09 | -27.30704 | 152.18655 | 20268 ft | 281 kts | 306° |
| 2026-04-27 21:10 | -27.29560 | 152.16868 | 20275 ft | 281 kts | 306° |
| 2026-04-27 21:10 | -27.28420 | 152.15086 | 20271 ft | 281 kts | 306° |
| 2026-04-27 21:10 | -27.27277 | 152.13302 | 20270 ft | 281 kts | 306° |
| 2026-04-27 21:10 | -27.26140 | 152.11527 | 20272 ft | 280 kts | 306° |
| 2026-04-27 21:11 | -27.24999 | 152.09746 | 20271 ft | 280 kts | 306° |
| 2026-04-27 21:11 | -27.23859 | 152.07969 | 20277 ft | 280 kts | 306° |
| 2026-04-27 21:11 | -27.22720 | 152.06193 | 20268 ft | 280 kts | 306° |
| 2026-04-27 21:11 | -27.21578 | 152.04415 | 20271 ft | 280 kts | 306° |
| 2026-04-27 21:12 | -27.20441 | 152.02644 | 20271 ft | 280 kts | 306° |
| 2026-04-27 21:12 | -27.19303 | 152.00872 | 20258 ft | 279 kts | 306° |
| 2026-04-27 21:12 | -27.18181 | 151.99127 | 20269 ft | 279 kts | 306° |
| 2026-04-27 21:12 | -27.17043 | 151.97357 | 20261 ft | 279 kts | 306° |
| 2026-04-27 21:13 | -27.15907 | 151.95592 | 20271 ft | 279 kts | 306° |
| 2026-04-27 21:13 | -27.14770 | 151.93825 | 20265 ft | 279 kts | 306° |
| 2026-04-27 21:13 | -27.13631 | 151.92056 | 20271 ft | 279 kts | 306° |
| 2026-04-27 21:13 | -27.12487 | 151.90281 | 20268 ft | 279 kts | 306° |
| 2026-04-27 21:14 | -27.11348 | 151.88512 | 20271 ft | 279 kts | 306° |
| 2026-04-27 21:14 | -27.10209 | 151.86745 | 20264 ft | 279 kts | 306° |
| 2026-04-27 21:14 | -27.09071 | 151.84980 | 20272 ft | 279 kts | 306° |
| 2026-04-27 21:14 | -27.07930 | 151.83212 | 20267 ft | 280 kts | 306° |
| 2026-04-27 21:15 | -27.06789 | 151.81443 | 20270 ft | 280 kts | 306° |
| 2026-04-27 21:15 | -27.05647 | 151.79675 | 20265 ft | 280 kts | 306° |
| 2026-04-27 21:15 | -27.04506 | 151.77908 | 20270 ft | 280 kts | 306° |
| 2026-04-27 21:15 | -27.03378 | 151.76163 | 20269 ft | 280 kts | 306° |
| 2026-04-27 21:16 | -27.02238 | 151.74399 | 20271 ft | 280 kts | 306° |
| 2026-04-27 21:16 | -27.01093 | 151.72629 | 20266 ft | 280 kts | 306° |
| 2026-04-27 21:16 | -26.99951 | 151.70865 | 20261 ft | 280 kts | 306° |
| 2026-04-27 21:16 | -26.98807 | 151.69098 | 20262 ft | 279 kts | 306° |
| 2026-04-27 21:17 | -26.97666 | 151.67335 | 20257 ft | 279 kts | 306° |
| 2026-04-27 21:17 | -26.96525 | 151.65573 | 20269 ft | 279 kts | 306° |
| 2026-04-27 21:17 | -26.95384 | 151.63813 | 20266 ft | 279 kts | 306° |
| 2026-04-27 21:17 | -26.94244 | 151.62054 | 20263 ft | 279 kts | 306° |
| 2026-04-27 21:18 | -26.93101 | 151.60291 | 20266 ft | 279 kts | 306° |
| 2026-04-27 21:18 | -26.91957 | 151.58527 | 20265 ft | 279 kts | 306° |
| 2026-04-27 21:18 | -26.90816 | 151.56769 | 20264 ft | 279 kts | 306° |
| 2026-04-27 21:18 | -26.89675 | 151.55012 | 20263 ft | 279 kts | 306° |
| 2026-04-27 21:19 | -26.88548 | 151.53277 | 20258 ft | 279 kts | 306° |
| 2026-04-27 21:19 | -26.87407 | 151.51521 | 20262 ft | 279 kts | 306° |
| 2026-04-27 21:19 | -26.86267 | 151.49768 | 20263 ft | 279 kts | 306° |
| 2026-04-27 21:20 | -26.83985 | 151.46259 | 20258 ft | 278 kts | 306° |
| 2026-04-27 21:20 | -26.82843 | 151.44505 | 20258 ft | 278 kts | 306° |
| 2026-04-27 21:20 | -26.81704 | 151.42755 | 20255 ft | 278 kts | 306° |
| 2026-04-27 21:20 | -26.80562 | 151.41001 | 20258 ft | 278 kts | 306° |
| 2026-04-27 21:21 | -26.79421 | 151.39249 | 20262 ft | 278 kts | 306° |
| 2026-04-27 21:21 | -26.78281 | 151.37500 | 20260 ft | 278 kts | 306° |
| 2026-04-27 21:21 | -26.77142 | 151.35753 | 20253 ft | 278 kts | 306° |
| 2026-04-27 21:21 | -26.76001 | 151.34005 | 20253 ft | 278 kts | 306° |
| 2026-04-27 21:22 | -26.74857 | 151.32252 | 20259 ft | 278 kts | 306° |
| 2026-04-27 21:22 | -26.73718 | 151.30507 | 20258 ft | 278 kts | 306° |
| 2026-04-27 21:22 | -26.72578 | 151.28762 | 20254 ft | 277 kts | 306° |
| 2026-04-27 21:22 | -26.71456 | 151.27044 | 20251 ft | 277 kts | 306° |
| 2026-04-27 21:23 | -26.70315 | 151.25299 | 20263 ft | 277 kts | 306° |
| 2026-04-27 21:23 | -26.69177 | 151.23558 | 20262 ft | 277 kts | 306° |
| 2026-04-27 21:23 | -26.68042 | 151.21822 | 20260 ft | 277 kts | 306° |
| 2026-04-27 21:23 | -26.66904 | 151.20084 | 20257 ft | 276 kts | 306° |
| 2026-04-27 21:24 | -26.65768 | 151.18348 | 20259 ft | 276 kts | 306° |
| 2026-04-27 21:24 | -26.64631 | 151.16613 | 20258 ft | 276 kts | 306° |
| 2026-04-27 21:24 | -26.63495 | 151.14879 | 20254 ft | 276 kts | 306° |
| 2026-04-27 21:24 | -26.62375 | 151.13169 | 20260 ft | 276 kts | 306° |
| 2026-04-27 21:25 | -26.61240 | 151.11439 | 20262 ft | 276 kts | 306° |
| 2026-04-27 21:25 | -26.60106 | 151.09710 | 20253 ft | 276 kts | 306° |
| 2026-04-27 21:25 | -26.58972 | 151.07981 | 20262 ft | 276 kts | 306° |
| 2026-04-27 21:25 | -26.57839 | 151.06255 | 20261 ft | 276 kts | 306° |
| 2026-04-27 21:26 | -26.56704 | 151.04527 | 20260 ft | 275 kts | 306° |
| 2026-04-27 21:26 | -26.55570 | 151.02801 | 20261 ft | 275 kts | 306° |
| 2026-04-27 21:26 | -26.54435 | 151.01074 | 20253 ft | 275 kts | 306° |
| 2026-04-27 21:26 | -26.53301 | 150.99349 | 20258 ft | 275 kts | 306° |
| 2026-04-27 21:27 | -26.52166 | 150.97623 | 20254 ft | 275 kts | 306° |
| 2026-04-27 21:27 | -26.51032 | 150.95899 | 20263 ft | 276 kts | 306° |
| 2026-04-27 21:27 | -26.49911 | 150.94196 | 20262 ft | 276 kts | 306° |
| 2026-04-27 21:27 | -26.48773 | 150.92467 | 20261 ft | 276 kts | 306° |
| 2026-04-27 21:28 | -26.47636 | 150.90741 | 20260 ft | 276 kts | 306° |
| 2026-04-27 21:28 | -26.46501 | 150.89018 | 20264 ft | 276 kts | 306° |
| 2026-04-27 21:28 | -26.45365 | 150.87295 | 20260 ft | 276 kts | 306° |
| 2026-04-27 21:28 | -26.44226 | 150.85569 | 20266 ft | 275 kts | 306° |
| 2026-04-27 21:29 | -26.43091 | 150.83848 | 20260 ft | 275 kts | 306° |
| 2026-04-27 21:29 | -26.41968 | 150.82147 | 20253 ft | 275 kts | 306° |
| 2026-04-27 21:29 | -26.40832 | 150.80426 | 20262 ft | 275 kts | 306° |
| 2026-04-27 21:29 | -26.39696 | 150.78706 | 20262 ft | 275 kts | 306° |
| 2026-04-27 21:30 | -26.38559 | 150.76985 | 20257 ft | 275 kts | 306° |
| 2026-04-27 21:30 | -26.37426 | 150.75270 | 20264 ft | 275 kts | 306° |
| 2026-04-27 21:30 | -26.36292 | 150.73554 | 20263 ft | 275 kts | 306° |
| 2026-04-27 21:30 | -26.35154 | 150.71834 | 20259 ft | 275 kts | 306° |
| 2026-04-27 21:31 | -26.34018 | 150.70117 | 20260 ft | 275 kts | 306° |
| 2026-04-27 21:31 | -26.32880 | 150.68399 | 20263 ft | 275 kts | 306° |
| 2026-04-27 21:31 | -26.31744 | 150.66682 | 20264 ft | 275 kts | 306° |
| 2026-04-27 21:31 | -26.30609 | 150.64969 | 20264 ft | 275 kts | 306° |
| 2026-04-27 21:32 | -26.29474 | 150.63256 | 20261 ft | 275 kts | 306° |
| 2026-04-27 21:32 | -26.28352 | 150.61562 | 20257 ft | 275 kts | 306° |
| 2026-04-27 21:32 | -26.27217 | 150.59850 | 20259 ft | 275 kts | 306° |
| 2026-04-27 21:32 | -26.26080 | 150.58134 | 20261 ft | 275 kts | 306° |
| 2026-04-27 21:33 | -26.24945 | 150.56420 | 20262 ft | 274 kts | 306° |
| 2026-04-27 21:33 | -26.23811 | 150.54710 | 20261 ft | 274 kts | 306° |
| 2026-04-27 21:33 | -26.22675 | 150.53000 | 20261 ft | 274 kts | 306° |
| 2026-04-27 21:33 | -26.21541 | 150.51291 | 20265 ft | 274 kts | 306° |
| 2026-04-27 21:34 | -26.20405 | 150.49582 | 20261 ft | 274 kts | 306° |
| 2026-04-27 21:34 | -26.19285 | 150.47896 | 20259 ft | 274 kts | 306° |
| 2026-04-27 21:34 | -26.18152 | 150.46191 | 20260 ft | 274 kts | 306° |
| 2026-04-27 21:34 | -26.17018 | 150.44486 | 20264 ft | 274 kts | 306° |
| 2026-04-27 21:35 | -26.15880 | 150.42777 | 20263 ft | 274 kts | 306° |
| 2026-04-27 21:35 | -26.14747 | 150.41075 | 20263 ft | 274 kts | 306° |
| 2026-04-27 21:35 | -26.13612 | 150.39370 | 20262 ft | 274 kts | 306° |
| 2026-04-27 21:35 | -26.12477 | 150.37667 | 20260 ft | 274 kts | 306° |
| 2026-04-27 21:36 | -26.11341 | 150.35964 | 20258 ft | 274 kts | 306° |
| 2026-04-27 21:36 | -26.10207 | 150.34263 | 20261 ft | 274 kts | 306° |
| 2026-04-27 21:36 | -26.09073 | 150.32563 | 20252 ft | 274 kts | 305° |
| 2026-04-27 21:36 | -26.07936 | 150.30860 | 20259 ft | 274 kts | 306° |
| 2026-04-27 21:37 | -26.06800 | 150.29158 | 20258 ft | 274 kts | 305° |
| 2026-04-27 21:37 | -26.05666 | 150.27460 | 20257 ft | 274 kts | 305° |
| 2026-04-27 21:37 | -26.04529 | 150.25758 | 20247 ft | 274 kts | 306° |
| 2026-04-27 21:37 | -26.03395 | 150.24061 | 20254 ft | 274 kts | 305° |
| 2026-04-27 21:38 | -26.02259 | 150.22363 | 20258 ft | 273 kts | 305° |
| 2026-04-27 21:38 | -26.01123 | 150.20664 | 20259 ft | 273 kts | 305° |
| 2026-04-27 21:38 | -25.99990 | 150.18971 | 20260 ft | 273 kts | 305° |
| 2026-04-27 21:38 | -25.98871 | 150.17299 | 20259 ft | 273 kts | 305° |
| 2026-04-27 21:39 | -25.97736 | 150.15604 | 20258 ft | 273 kts | 306° |
| 2026-04-27 21:39 | -25.96602 | 150.13910 | 20257 ft | 273 kts | 305° |
| 2026-04-27 21:39 | -25.95468 | 150.12219 | 20253 ft | 273 kts | 305° |
| 2026-04-27 21:39 | -25.94334 | 150.10527 | 20256 ft | 273 kts | 305° |
| 2026-04-27 21:40 | -25.93200 | 150.08836 | 20258 ft | 273 kts | 305° |
| 2026-04-27 21:40 | -25.92066 | 150.07147 | 20256 ft | 272 kts | 305° |
| 2026-04-27 21:40 | -25.90933 | 150.05458 | 20256 ft | 272 kts | 305° |
| 2026-04-27 21:40 | -25.89800 | 150.03769 | 20257 ft | 272 kts | 305° |
| 2026-04-27 21:41 | -25.88686 | 150.02110 | 20253 ft | 272 kts | 305° |
| 2026-04-27 21:41 | -25.87553 | 150.00426 | 20254 ft | 272 kts | 305° |
| 2026-04-27 21:41 | -25.86422 | 149.98745 | 20255 ft | 272 kts | 305° |
| 2026-04-27 21:41 | -25.85288 | 149.97060 | 20254 ft | 272 kts | 305° |
| 2026-04-27 21:42 | -25.84156 | 149.95378 | 20258 ft | 272 kts | 305° |
| 2026-04-27 21:42 | -25.83026 | 149.93698 | 20257 ft | 272 kts | 305° |
| 2026-04-27 21:42 | -25.81892 | 149.92014 | 20257 ft | 272 kts | 305° |
| 2026-04-27 21:42 | -25.80790 | 149.90307 | 20256 ft | 271 kts | 301° |
| 2026-04-27 21:43 | -25.79859 | 149.88487 | 20254 ft | 270 kts | 295° |
| 2026-04-27 21:43 | -25.79084 | 149.86617 | 20255 ft | 269 kts | 292° |
| 2026-04-27 21:43 | -25.78325 | 149.84690 | 20254 ft | 269 kts | 291° |
| 2026-04-27 21:43 | -25.77587 | 149.82807 | 20256 ft | 269 kts | 291° |
| 2026-04-27 21:44 | -25.76839 | 149.80900 | 20256 ft | 269 kts | 292° |
| 2026-04-27 21:44 | -25.76089 | 149.78996 | 20257 ft | 269 kts | 292° |
| 2026-04-27 21:44 | -25.75336 | 149.77092 | 20259 ft | 269 kts | 292° |
| 2026-04-27 21:44 | -25.74583 | 149.75192 | 20256 ft | 269 kts | 292° |
| 2026-04-27 21:45 | -25.73826 | 149.73285 | 20259 ft | 270 kts | 292° |
| 2026-04-27 21:45 | -25.73070 | 149.71383 | 20258 ft | 270 kts | 292° |
| 2026-04-27 21:45 | -25.72314 | 149.69483 | 20261 ft | 270 kts | 292° |
| 2026-04-27 21:45 | -25.71558 | 149.67582 | 20258 ft | 270 kts | 292° |
| 2026-04-27 21:46 | -25.70799 | 149.65676 | 20260 ft | 270 kts | 292° |
| 2026-04-27 21:46 | -25.70040 | 149.63770 | 20257 ft | 270 kts | 292° |
| 2026-04-27 21:46 | -25.69281 | 149.61867 | 20261 ft | 270 kts | 292° |
| 2026-04-27 21:46 | -25.68521 | 149.59962 | 20260 ft | 270 kts | 292° |
| 2026-04-27 21:47 | -25.67763 | 149.58062 | 20259 ft | 270 kts | 292° |
| 2026-04-27 21:47 | -25.67004 | 149.56160 | 20259 ft | 270 kts | 292° |
| 2026-04-27 21:47 | -25.66243 | 149.54256 | 20260 ft | 270 kts | 292° |
| 2026-04-27 21:47 | -25.65494 | 149.52380 | 20260 ft | 270 kts | 292° |
| 2026-04-27 21:48 | -25.64734 | 149.50478 | 20260 ft | 270 kts | 292° |
| 2026-04-27 21:48 | -25.63974 | 149.48576 | 20259 ft | 270 kts | 292° |
| 2026-04-27 21:48 | -25.63214 | 149.46677 | 20260 ft | 270 kts | 292° |
| 2026-04-27 21:48 | -25.62454 | 149.44778 | 20260 ft | 270 kts | 292° |
| 2026-04-27 21:49 | -25.61692 | 149.42874 | 20264 ft | 270 kts | 292° |
| 2026-04-27 21:49 | -25.60931 | 149.40972 | 20262 ft | 270 kts | 292° |
| 2026-04-27 21:49 | -25.60170 | 149.39073 | 20262 ft | 270 kts | 292° |
| 2026-04-27 21:49 | -25.59408 | 149.37172 | 20260 ft | 270 kts | 292° |
| 2026-04-27 21:50 | -25.58645 | 149.35270 | 20262 ft | 270 kts | 292° |
| 2026-04-27 21:50 | -25.57881 | 149.33367 | 20263 ft | 270 kts | 292° |
| 2026-04-27 21:50 | -25.57117 | 149.31462 | 20260 ft | 270 kts | 292° |
| 2026-04-27 21:50 | -25.56353 | 149.29561 | 20262 ft | 270 kts | 292° |
| 2026-04-27 21:51 | -25.55589 | 149.27658 | 20260 ft | 270 kts | 292° |
| 2026-04-27 21:51 | -25.54823 | 149.25753 | 20263 ft | 270 kts | 292° |
| 2026-04-27 21:51 | -25.54070 | 149.23879 | 20262 ft | 270 kts | 292° |
| 2026-04-27 21:51 | -25.53304 | 149.21977 | 20263 ft | 271 kts | 292° |
| 2026-04-27 21:52 | -25.52537 | 149.20070 | 20259 ft | 271 kts | 292° |
| 2026-04-27 21:52 | -25.51770 | 149.18167 | 20259 ft | 270 kts | 292° |
| 2026-04-27 21:52 | -25.51003 | 149.16266 | 20259 ft | 270 kts | 292° |
| 2026-04-27 21:52 | -25.50238 | 149.14368 | 20260 ft | 270 kts | 292° |
| 2026-04-27 21:53 | -25.49472 | 149.12467 | 20262 ft | 270 kts | 292° |
| 2026-04-27 21:53 | -25.48965 | 149.11211 | 20258 ft | 270 kts | 292° |
| 2026-04-27 21:53 | -25.48198 | 149.09312 | 20263 ft | 270 kts | 292° |
| 2026-04-27 21:53 | -25.47430 | 149.07415 | 20261 ft | 270 kts | 292° |
| 2026-04-27 21:54 | -25.46662 | 149.05520 | 20261 ft | 270 kts | 292° |
| 2026-04-27 21:54 | -25.45893 | 149.03622 | 20265 ft | 270 kts | 292° |
| 2026-04-27 21:54 | -25.45125 | 149.01727 | 20267 ft | 270 kts | 292° |
| 2026-04-27 21:54 | -25.44355 | 148.99830 | 20269 ft | 270 kts | 292° |
| 2026-04-27 21:55 | -25.43584 | 148.97928 | 20267 ft | 271 kts | 292° |
| 2026-04-27 21:55 | -25.42814 | 148.96027 | 20266 ft | 271 kts | 292° |
| 2026-04-27 21:55 | -25.42041 | 148.94124 | 20266 ft | 271 kts | 292° |
| 2026-04-27 21:55 | -25.41269 | 148.92223 | 20262 ft | 271 kts | 292° |
| 2026-04-27 21:56 | -25.40498 | 148.90323 | 20262 ft | 271 kts | 292° |
| 2026-04-27 21:56 | -25.38956 | 148.86525 | 20263 ft | 271 kts | 292° |
| 2026-04-27 21:56 | -25.38184 | 148.84626 | 20264 ft | 270 kts | 292° |
| 2026-04-27 21:57 | -25.37413 | 148.82727 | 20264 ft | 270 kts | 292° |
| 2026-04-27 21:57 | -25.36643 | 148.80831 | 20261 ft | 270 kts | 292° |
| 2026-04-27 21:57 | -25.35873 | 148.78937 | 20263 ft | 270 kts | 292° |
| 2026-04-27 21:57 | -25.35112 | 148.77064 | 20260 ft | 270 kts | 292° |
| 2026-04-27 21:58 | -25.34339 | 148.75164 | 20266 ft | 271 kts | 292° |
| 2026-04-27 21:58 | -25.33566 | 148.73264 | 20267 ft | 271 kts | 292° |
| 2026-04-27 21:58 | -25.32792 | 148.71363 | 20266 ft | 271 kts | 292° |
| 2026-04-27 21:58 | -25.32018 | 148.69464 | 20262 ft | 271 kts | 292° |
| 2026-04-27 21:59 | -25.31245 | 148.67566 | 20267 ft | 271 kts | 292° |
| 2026-04-27 21:59 | -25.30469 | 148.65662 | 20260 ft | 271 kts | 292° |
| 2026-04-27 21:59 | -25.29696 | 148.63766 | 20262 ft | 271 kts | 292° |
| 2026-04-27 21:59 | -25.28919 | 148.61864 | 20261 ft | 271 kts | 292° |
| 2026-04-27 22:00 | -25.28143 | 148.59963 | 20261 ft | 271 kts | 292° |
| 2026-04-27 22:00 | -25.27378 | 148.58089 | 20266 ft | 271 kts | 292° |
| 2026-04-27 22:00 | -25.26600 | 148.56183 | 20263 ft | 272 kts | 292° |
| 2026-04-27 22:00 | -25.25822 | 148.54282 | 20262 ft | 271 kts | 292° |
| 2026-04-27 22:01 | -25.25045 | 148.52380 | 20263 ft | 271 kts | 292° |
| 2026-04-27 22:01 | -25.24267 | 148.50478 | 20259 ft | 271 kts | 292° |
| 2026-04-27 22:01 | -25.23491 | 148.48583 | 20260 ft | 271 kts | 292° |
| 2026-04-27 22:01 | -25.22714 | 148.46687 | 20261 ft | 271 kts | 292° |
| 2026-04-27 22:02 | -25.21937 | 148.44791 | 20265 ft | 271 kts | 292° |
| 2026-04-27 22:02 | -25.21163 | 148.42896 | 20268 ft | 271 kts | 292° |
| 2026-04-27 22:02 | -25.20386 | 148.40997 | 20268 ft | 271 kts | 292° |
| 2026-04-27 22:02 | -25.19611 | 148.39100 | 20260 ft | 271 kts | 292° |
| 2026-04-27 22:03 | -25.18834 | 148.37204 | 20264 ft | 271 kts | 292° |
| 2026-04-27 22:03 | -25.18056 | 148.35307 | 20261 ft | 271 kts | 292° |
| 2026-04-27 22:03 | -25.17280 | 148.33418 | 20262 ft | 271 kts | 292° |
| 2026-04-27 22:03 | -25.16503 | 148.31526 | 20263 ft | 270 kts | 292° |
| 2026-04-27 22:04 | -25.15723 | 148.29631 | 20264 ft | 270 kts | 292° |
| 2026-04-27 22:04 | -25.14945 | 148.27746 | 20262 ft | 270 kts | 292° |
| 2026-04-27 22:04 | -25.14165 | 148.25855 | 20265 ft | 271 kts | 292° |
| 2026-04-27 22:04 | -25.13383 | 148.23961 | 20261 ft | 271 kts | 292° |
| 2026-04-27 22:05 | -25.12603 | 148.22069 | 20264 ft | 271 kts | 292° |
| 2026-04-27 22:05 | -25.11823 | 148.20177 | 20262 ft | 271 kts | 292° |
| 2026-04-27 22:05 | -25.11053 | 148.18311 | 20263 ft | 271 kts | 292° |
| 2026-04-27 22:05 | -25.10272 | 148.16417 | 20267 ft | 271 kts | 292° |
| 2026-04-27 22:06 | -25.09491 | 148.14524 | 20266 ft | 271 kts | 292° |
| 2026-04-27 22:06 | -25.08710 | 148.12632 | 20260 ft | 271 kts | 292° |
| 2026-04-27 22:06 | -25.07928 | 148.10738 | 20260 ft | 271 kts | 292° |
| 2026-04-27 22:06 | -25.07148 | 148.08844 | 20262 ft | 271 kts | 292° |
| 2026-04-27 22:07 | -25.06367 | 148.06949 | 20268 ft | 271 kts | 292° |
| 2026-04-27 22:07 | -25.05587 | 148.05057 | 20261 ft | 271 kts | 292° |
| 2026-04-27 22:07 | -25.04805 | 148.03166 | 20261 ft | 271 kts | 292° |
| 2026-04-27 22:07 | -25.04023 | 148.01278 | 20262 ft | 271 kts | 292° |
| 2026-04-27 22:08 | -25.03239 | 147.99385 | 20263 ft | 271 kts | 292° |
| 2026-04-27 22:08 | -25.02455 | 147.97494 | 20260 ft | 271 kts | 292° |
| 2026-04-27 22:08 | -25.01672 | 147.95606 | 20254 ft | 271 kts | 292° |
| 2026-04-27 22:08 | -25.00898 | 147.93738 | 20257 ft | 271 kts | 292° |
| 2026-04-27 22:09 | -25.00103 | 147.91821 | 20255 ft | 271 kts | 292° |
| 2026-04-27 22:09 | -24.99330 | 147.89957 | 20254 ft | 271 kts | 292° |
| 2026-04-27 22:09 | -24.98546 | 147.88067 | 20248 ft | 271 kts | 292° |
| 2026-04-27 22:09 | -24.97763 | 147.86180 | 20247 ft | 270 kts | 292° |
| 2026-04-27 22:10 | -24.96980 | 147.84294 | 20258 ft | 270 kts | 292° |
| 2026-04-27 22:10 | -24.96462 | 147.83047 | 20255 ft | 270 kts | 292° |
| 2026-04-27 22:10 | -24.95416 | 147.80533 | 20252 ft | 270 kts | 292° |
| 2026-04-27 22:10 | -24.94632 | 147.78648 | 20250 ft | 270 kts | 292° |
| 2026-04-27 22:11 | -24.93850 | 147.76769 | 20252 ft | 270 kts | 292° |
| 2026-04-27 22:11 | -24.93069 | 147.74892 | 20252 ft | 270 kts | 292° |
| 2026-04-27 22:11 | -24.92287 | 147.73012 | 20252 ft | 270 kts | 292° |
| 2026-04-27 22:11 | -24.91504 | 147.71135 | 20246 ft | 270 kts | 292° |
| 2026-04-27 22:12 | -24.90721 | 147.69256 | 20249 ft | 270 kts | 292° |
| 2026-04-27 22:12 | -24.89938 | 147.67377 | 20250 ft | 270 kts | 292° |
| 2026-04-27 22:12 | -24.89153 | 147.65496 | 20246 ft | 270 kts | 292° |
| 2026-04-27 22:12 | -24.88379 | 147.63646 | 20243 ft | 270 kts | 292° |
| 2026-04-27 22:13 | -24.87593 | 147.61769 | 20245 ft | 269 kts | 292° |
| 2026-04-27 22:13 | -24.86809 | 147.59894 | 20246 ft | 269 kts | 292° |
| 2026-04-27 22:13 | -24.86022 | 147.58016 | 20240 ft | 271 kts | 292° |
| 2026-04-27 22:13 | -24.85245 | 147.56157 | 20555 ft | 261 kts | 292° |
| 2026-04-27 22:14 | -24.84498 | 147.54371 | 20929 ft | 254 kts | 292° |
| 2026-04-27 22:14 | -24.83769 | 147.52625 | 21302 ft | 248 kts | 292° |
| 2026-04-27 22:14 | -24.83055 | 147.50915 | 21678 ft | 243 kts | 292° |
| 2026-04-27 22:14 | -24.82353 | 147.49232 | 22062 ft | 240 kts | 292° |
| 2026-04-27 22:15 | -24.81669 | 147.47594 | 22446 ft | 237 kts | 292° |
| 2026-04-27 22:15 | -24.80981 | 147.45949 | 22840 ft | 235 kts | 292° |
| 2026-04-27 22:15 | -24.80300 | 147.44320 | 23237 ft | 233 kts | 292° |
| 2026-04-27 22:15 | -24.79626 | 147.42711 | 23645 ft | 229 kts | 291° |
| 2026-04-27 22:16 | -24.78966 | 147.41139 | 24010 ft | 224 kts | 291° |
| 2026-04-27 22:16 | -24.78319 | 147.39598 | 24357 ft | 220 kts | 291° |
| 2026-04-27 22:16 | -24.77682 | 147.38080 | 24694 ft | 216 kts | 290° |
| 2026-04-27 22:16 | -24.77056 | 147.36588 | 25036 ft | 213 kts | 290° |
| 2026-04-27 22:17 | -24.76438 | 147.35114 | 25392 ft | 211 kts | 289° |
| 2026-04-27 22:17 | -24.75827 | 147.33657 | 25741 ft | 208 kts | 289° |
| 2026-04-27 22:17 | -24.75225 | 147.32223 | 26102 ft | 205 kts | 288° |
| 2026-04-27 22:17 | -24.74616 | 147.30760 | 26192 ft | 217 kts | 288° |
| 2026-04-27 22:18 | -24.73970 | 147.29204 | 26222 ft | 229 kts | 289° |
| 2026-04-27 22:18 | -24.73288 | 147.27572 | 26232 ft | 239 kts | 289° |
| 2026-04-27 22:18 | -24.72576 | 147.25883 | 26232 ft | 247 kts | 289° |
| 2026-04-27 22:18 | -24.71842 | 147.24147 | 26236 ft | 253 kts | 289° |
| 2026-04-27 22:19 | -24.71090 | 147.22375 | 26243 ft | 257 kts | 289° |
| 2026-04-27 22:19 | -24.70340 | 147.20606 | 26243 ft | 260 kts | 289° |
| 2026-04-27 22:19 | -24.69572 | 147.18796 | 26237 ft | 262 kts | 290° |
| 2026-04-27 22:19 | -24.68800 | 147.16977 | 26236 ft | 264 kts | 290° |
| 2026-04-27 22:20 | -24.68023 | 147.15143 | 26242 ft | 265 kts | 290° |
| 2026-04-27 22:20 | -24.67246 | 147.13308 | 26240 ft | 265 kts | 290° |
| 2026-04-27 22:20 | -24.66466 | 147.11465 | 26238 ft | 266 kts | 289° |
| 2026-04-27 22:20 | -24.65686 | 147.09622 | 26238 ft | 265 kts | 289° |
| 2026-04-27 22:21 | -24.64910 | 147.07791 | 26242 ft | 263 kts | 289° |
| 2026-04-27 22:21 | -24.64137 | 147.05969 | 26239 ft | 261 kts | 289° |
| 2026-04-27 22:21 | -24.63372 | 147.04164 | 26235 ft | 260 kts | 289° |
| 2026-04-27 22:21 | -24.62611 | 147.02368 | 26234 ft | 259 kts | 289° |
| 2026-04-27 22:22 | -24.61855 | 147.00581 | 26241 ft | 258 kts | 289° |
| 2026-04-27 22:22 | -24.61100 | 146.98798 | 26239 ft | 257 kts | 289° |
| 2026-04-27 22:22 | -24.60347 | 146.97021 | 26238 ft | 256 kts | 289° |
| 2026-04-27 22:22 | -24.59607 | 146.95273 | 26235 ft | 256 kts | 289° |
| 2026-04-27 22:23 | -24.58857 | 146.93504 | 26240 ft | 255 kts | 289° |
| 2026-04-27 22:23 | -24.58108 | 146.91738 | 26234 ft | 255 kts | 289° |
| 2026-04-27 22:23 | -24.57360 | 146.89975 | 26236 ft | 254 kts | 289° |
| 2026-04-27 22:23 | -24.56613 | 146.88215 | 26235 ft | 254 kts | 289° |
| 2026-04-27 22:24 | -24.55867 | 146.86457 | 26236 ft | 254 kts | 289° |
| 2026-04-27 22:24 | -24.55372 | 146.85292 | 26234 ft | 253 kts | 289° |
| 2026-04-27 22:24 | -24.54807 | 146.83962 | 26232 ft | 253 kts | 289° |
| 2026-04-27 22:24 | -24.54342 | 146.82867 | 26234 ft | 253 kts | 289° |
| 2026-04-27 22:25 | -24.54289 | 146.82744 | 26233 ft | 253 kts | 289° |
| 2026-04-27 22:25 | -24.53866 | 146.81749 | 26239 ft | 253 kts | 289° |
| 2026-04-27 22:25 | -24.53123 | 146.80000 | 26234 ft | 253 kts | 289° |
| 2026-04-27 22:25 | -24.52381 | 146.78256 | 26234 ft | 252 kts | 289° |
| 2026-04-27 22:26 | -24.51638 | 146.76509 | 26236 ft | 252 kts | 289° |
| 2026-04-27 22:26 | -24.50896 | 146.74766 | 26234 ft | 252 kts | 289° |
| 2026-04-27 22:26 | -24.50155 | 146.73027 | 26231 ft | 252 kts | 289° |
| 2026-04-27 22:26 | -24.49848 | 146.72308 | 26232 ft | 251 kts | 289° |
| 2026-04-27 22:27 | -24.49345 | 146.71127 | 26237 ft | 251 kts | 289° |
| 2026-04-27 22:27 | -24.48736 | 146.69698 | 26233 ft | 251 kts | 289° |
| 2026-04-27 22:27 | -24.48508 | 146.69165 | 26233 ft | 251 kts | 289° |
| 2026-04-27 22:28 | -24.47769 | 146.67432 | 26234 ft | 251 kts | 289° |
| 2026-04-27 22:28 | -24.47030 | 146.65700 | 26230 ft | 251 kts | 289° |
| 2026-04-27 22:28 | -24.46290 | 146.63966 | 26231 ft | 250 kts | 289° |
| 2026-04-27 22:28 | -24.45550 | 146.62234 | 26228 ft | 250 kts | 289° |
| 2026-04-27 22:29 | -24.44812 | 146.60505 | 26232 ft | 250 kts | 289° |
| 2026-04-27 22:29 | -24.44076 | 146.58783 | 26228 ft | 249 kts | 289° |
| 2026-04-27 22:29 | -24.43338 | 146.57059 | 26231 ft | 249 kts | 289° |
| 2026-04-27 22:29 | -24.42602 | 146.55337 | 26230 ft | 249 kts | 289° |
| 2026-04-27 22:30 | -24.41866 | 146.53618 | 26234 ft | 249 kts | 289° |
| 2026-04-27 22:30 | -24.41132 | 146.51902 | 26235 ft | 249 kts | 289° |
| 2026-04-27 22:30 | -24.40397 | 146.50185 | 26234 ft | 249 kts | 289° |
| 2026-04-27 22:30 | -24.39649 | 146.48475 | 26233 ft | 249 kts | 290° |
| 2026-04-27 22:31 | -24.38830 | 146.46798 | 26234 ft | 250 kts | 292° |
| 2026-04-27 22:31 | -24.37968 | 146.45142 | 26232 ft | 250 kts | 293° |
| 2026-04-27 22:31 | -24.37091 | 146.43492 | 26231 ft | 250 kts | 293° |
| 2026-04-27 22:31 | -24.36217 | 146.41847 | 26229 ft | 249 kts | 293° |
| 2026-04-27 22:32 | -24.35349 | 146.40200 | 26231 ft | 249 kts | 292° |
| 2026-04-27 22:32 | -24.34485 | 146.38552 | 26231 ft | 249 kts | 292° |
| 2026-04-27 22:32 | -24.33626 | 146.36905 | 26232 ft | 249 kts | 292° |
| 2026-04-27 22:32 | -24.32770 | 146.35256 | 26228 ft | 249 kts | 292° |
| 2026-04-27 22:33 | -24.31914 | 146.33607 | 26232 ft | 249 kts | 292° |
| 2026-04-27 22:33 | -24.31071 | 146.31980 | 26229 ft | 248 kts | 292° |
| 2026-04-27 22:33 | -24.30207 | 146.30315 | 26225 ft | 248 kts | 292° |
| 2026-04-27 22:33 | -24.29356 | 146.28673 | 26229 ft | 248 kts | 292° |
| 2026-04-27 22:34 | -24.28515 | 146.27052 | 26227 ft | 248 kts | 292° |
| 2026-04-27 22:34 | -24.27663 | 146.25410 | 26228 ft | 247 kts | 292° |
| 2026-04-27 22:34 | -24.26812 | 146.23771 | 26225 ft | 247 kts | 291° |
| 2026-04-27 22:34 | -24.25962 | 146.22133 | 26228 ft | 247 kts | 291° |
| 2026-04-27 22:35 | -24.25112 | 146.20496 | 26228 ft | 247 kts | 291° |
| 2026-04-27 22:35 | -24.24262 | 146.18859 | 26229 ft | 247 kts | 291° |
| 2026-04-27 22:35 | -24.23410 | 146.17219 | 26222 ft | 247 kts | 291° |
| 2026-04-27 22:35 | -24.22849 | 146.16139 | 26225 ft | 247 kts | 291° |
| 2026-04-27 22:36 | -24.21713 | 146.13954 | 26226 ft | 247 kts | 291° |
| 2026-04-27 22:36 | -24.20873 | 146.12338 | 26224 ft | 247 kts | 291° |
| 2026-04-27 22:36 | -24.20025 | 146.10708 | 26224 ft | 246 kts | 291° |
| 2026-04-27 22:36 | -24.19164 | 146.09054 | 26223 ft | 246 kts | 291° |
| 2026-04-27 22:37 | -24.18317 | 146.07428 | 26227 ft | 246 kts | 291° |
| 2026-04-27 22:37 | -24.17481 | 146.05822 | 26221 ft | 246 kts | 290° |
| 2026-04-27 22:37 | -24.16634 | 146.04194 | 26222 ft | 246 kts | 290° |
| 2026-04-27 22:37 | -24.15787 | 146.02571 | 26221 ft | 246 kts | 290° |
| 2026-04-27 22:38 | -24.14939 | 146.00944 | 26224 ft | 246 kts | 290° |
| 2026-04-27 22:38 | -24.14090 | 145.99316 | 26225 ft | 246 kts | 290° |
| 2026-04-27 22:38 | -24.13240 | 145.97686 | 26221 ft | 247 kts | 290° |
| 2026-04-27 22:38 | -24.12389 | 145.96056 | 26219 ft | 247 kts | 290° |
| 2026-04-27 22:39 | -24.11539 | 145.94427 | 26221 ft | 246 kts | 290° |
| 2026-04-27 22:39 | -24.10688 | 145.92798 | 26216 ft | 246 kts | 290° |
| 2026-04-27 22:39 | -24.09838 | 145.91171 | 26218 ft | 246 kts | 290° |
| 2026-04-27 22:39 | -24.08988 | 145.89545 | 26216 ft | 246 kts | 290° |
| 2026-04-27 22:40 | -24.08427 | 145.88470 | 26217 ft | 246 kts | 290° |
| 2026-04-27 22:40 | -24.07627 | 145.86939 | 26221 ft | 246 kts | 290° |
| 2026-04-27 22:40 | -24.06777 | 145.85315 | 26220 ft | 246 kts | 290° |
| 2026-04-27 22:40 | -24.05928 | 145.83690 | 26218 ft | 246 kts | 290° |
| 2026-04-27 22:41 | -24.05077 | 145.82064 | 26217 ft | 246 kts | 290° |
| 2026-04-27 22:41 | -24.04227 | 145.80442 | 26216 ft | 246 kts | 290° |
| 2026-04-27 22:41 | -24.03378 | 145.78819 | 26219 ft | 246 kts | 289° |
| 2026-04-27 22:41 | -24.02530 | 145.77202 | 26217 ft | 245 kts | 289° |
| 2026-04-27 22:42 | -24.01681 | 145.75581 | 26219 ft | 245 kts | 289° |
| 2026-04-27 22:42 | -24.00831 | 145.73960 | 26218 ft | 245 kts | 289° |
| 2026-04-27 22:42 | -23.99982 | 145.72341 | 26218 ft | 245 kts | 289° |
| 2026-04-27 22:42 | -23.99133 | 145.70722 | 26215 ft | 245 kts | 289° |
| 2026-04-27 22:43 | -23.98285 | 145.69105 | 26215 ft | 245 kts | 289° |
| 2026-04-27 22:43 | -23.97437 | 145.67489 | 26217 ft | 245 kts | 289° |
| 2026-04-27 22:43 | -23.96586 | 145.65868 | 26215 ft | 245 kts | 289° |
| 2026-04-27 22:43 | -23.95737 | 145.64253 | 26214 ft | 245 kts | 289° |
| 2026-04-27 22:44 | -23.94888 | 145.62637 | 26214 ft | 245 kts | 289° |
| 2026-04-27 22:44 | -23.94052 | 145.61046 | 26215 ft | 244 kts | 289° |
| 2026-04-27 22:44 | -23.93204 | 145.59433 | 26215 ft | 244 kts | 289° |
| 2026-04-27 22:44 | -23.92358 | 145.57824 | 26215 ft | 244 kts | 289° |
| 2026-04-27 22:45 | -23.91513 | 145.56218 | 26215 ft | 244 kts | 289° |
| 2026-04-27 22:45 | -23.90666 | 145.54608 | 26217 ft | 244 kts | 289° |
| 2026-04-27 22:45 | -23.89821 | 145.53003 | 26215 ft | 244 kts | 289° |
| 2026-04-27 22:45 | -23.88974 | 145.51394 | 26214 ft | 244 kts | 289° |
| 2026-04-27 22:46 | -23.88127 | 145.49787 | 26205 ft | 244 kts | 289° |
| 2026-04-27 22:46 | -23.87258 | 145.48114 | 25845 ft | 262 kts | 289° |
| 2026-04-27 22:46 | -23.86339 | 145.46339 | 25494 ft | 275 kts | 289° |
| 2026-04-27 22:46 | -23.85381 | 145.44516 | 25142 ft | 277 kts | 290° |
| 2026-04-27 22:47 | -23.84421 | 145.42729 | 24799 ft | 267 kts | 290° |
| 2026-04-27 22:47 | -23.83487 | 145.41002 | 24454 ft | 261 kts | 290° |
| 2026-04-27 22:47 | -23.82576 | 145.39306 | 24120 ft | 257 kts | 289° |
| 2026-04-27 22:47 | -23.81695 | 145.37650 | 23790 ft | 254 kts | 289° |
| 2026-04-27 22:48 | -23.80815 | 145.35988 | 23382 ft | 252 kts | 289° |
| 2026-04-27 22:48 | -23.79941 | 145.34331 | 22994 ft | 251 kts | 289° |
| 2026-04-27 22:48 | -23.79070 | 145.32677 | 22596 ft | 250 kts | 290° |
| 2026-04-27 22:48 | -23.78203 | 145.31031 | 22213 ft | 250 kts | 291° |
| 2026-04-27 22:49 | -23.77335 | 145.29386 | 21824 ft | 250 kts | 291° |
| 2026-04-27 22:49 | -23.76468 | 145.27742 | 21452 ft | 250 kts | 292° |
| 2026-04-27 22:49 | -23.75601 | 145.26102 | 21078 ft | 250 kts | 292° |
| 2026-04-27 22:49 | -23.74733 | 145.24460 | 20709 ft | 250 kts | 293° |
| 2026-04-27 22:50 | -23.73863 | 145.22817 | 20343 ft | 250 kts | 294° |
| 2026-04-27 22:50 | -23.72994 | 145.21176 | 19987 ft | 250 kts | 294° |
| 2026-04-27 22:50 | -23.72125 | 145.19536 | 19625 ft | 249 kts | 295° |
| 2026-04-27 22:50 | -23.71257 | 145.17899 | 19276 ft | 249 kts | 295° |
| 2026-04-27 22:51 | -23.70391 | 145.16266 | 18932 ft | 249 kts | 296° |
| 2026-04-27 22:51 | -23.69525 | 145.14633 | 18594 ft | 248 kts | 296° |
| 2026-04-27 22:51 | -23.68659 | 145.13001 | 18209 ft | 248 kts | 296° |
| 2026-04-27 22:51 | -23.67796 | 145.11377 | 17809 ft | 248 kts | 296° |
| 2026-04-27 22:52 | -23.66933 | 145.09754 | 17422 ft | 247 kts | 296° |
| 2026-04-27 22:52 | -23.66071 | 145.08130 | 17029 ft | 247 kts | 296° |
| 2026-04-27 22:52 | -23.65209 | 145.06510 | 16649 ft | 247 kts | 297° |
| 2026-04-27 22:52 | -23.64360 | 145.04912 | 16277 ft | 247 kts | 297° |
| 2026-04-27 22:53 | -23.63488 | 145.03271 | 15899 ft | 247 kts | 297° |
| 2026-04-27 22:53 | -23.62627 | 145.01654 | 15535 ft | 247 kts | 297° |
| 2026-04-27 22:53 | -23.61767 | 145.00035 | 15168 ft | 247 kts | 297° |
| 2026-04-27 22:53 | -23.60905 | 144.98416 | 14795 ft | 247 kts | 297° |
| 2026-04-27 22:54 | -23.60043 | 144.96797 | 14457 ft | 247 kts | 297° |
| 2026-04-27 22:54 | -23.59180 | 144.95177 | 14103 ft | 247 kts | 297° |
| 2026-04-27 22:54 | -23.58325 | 144.93571 | 13719 ft | 249 kts | 297° |
| 2026-04-27 22:54 | -23.57446 | 144.91918 | 13329 ft | 254 kts | 297° |
| 2026-04-27 22:55 | -23.56552 | 144.90236 | 12943 ft | 257 kts | 297° |
| 2026-04-27 22:55 | -23.55650 | 144.88543 | 12563 ft | 259 kts | 298° |
| 2026-04-27 22:55 | -23.54743 | 144.86841 | 12184 ft | 260 kts | 298° |
| 2026-04-27 22:55 | -23.53832 | 144.85137 | 11808 ft | 260 kts | 298° |
| 2026-04-27 22:56 | -23.52917 | 144.83431 | 11443 ft | 261 kts | 298° |
| 2026-04-27 22:56 | -23.52002 | 144.81731 | 11083 ft | 259 kts | 298° |
| 2026-04-27 22:56 | -23.51087 | 144.80040 | 10721 ft | 258 kts | 298° |
| 2026-04-27 22:56 | -23.50175 | 144.78362 | 10365 ft | 257 kts | 298° |
| 2026-04-27 22:57 | -23.49270 | 144.76704 | 10012 ft | 258 kts | 299° |
| 2026-04-27 22:57 | -23.48349 | 144.75023 | 9605 ft | 258 kts | 299° |
| 2026-04-27 22:57 | -23.47427 | 144.73346 | 9224 ft | 258 kts | 300° |
| 2026-04-27 22:57 | -23.46503 | 144.71675 | 8842 ft | 257 kts | 300° |
| 2026-04-27 22:58 | -23.45577 | 144.70005 | 8465 ft | 257 kts | 300° |
| 2026-04-27 22:58 | -23.44652 | 144.68343 | 8090 ft | 256 kts | 300° |
| 2026-04-27 22:58 | -23.43728 | 144.66693 | 7683 ft | 255 kts | 301° |
| 2026-04-27 22:58 | -23.42804 | 144.65050 | 7272 ft | 254 kts | 301° |
| 2026-04-27 22:59 | -23.41879 | 144.63414 | 6872 ft | 253 kts | 302° |
| 2026-04-27 22:59 | -23.40951 | 144.61781 | 6454 ft | 253 kts | 302° |
| 2026-04-27 22:59 | -23.40026 | 144.60161 | 6021 ft | 252 kts | 302° |
| 2026-04-27 22:59 | -23.39097 | 144.58543 | 5594 ft | 251 kts | 303° |
| 2026-04-27 23:00 | -23.37240 | 144.55332 | 4718 ft | 246 kts | 303° |
| 2026-04-27 23:00 | -23.36341 | 144.53787 | 4234 ft | 238 kts | 304° |
| 2026-04-27 23:00 | -23.35482 | 144.52317 | 3746 ft | 228 kts | 304° |
| 2026-04-27 23:01 | -23.34648 | 144.50897 | 3241 ft | 217 kts | 305° |
| 2026-04-27 23:01 | -23.33842 | 144.49535 | 2747 ft | 210 kts | 306° |
| 2026-04-27 23:01 | -23.33083 | 144.48256 | 2602 ft | 189 kts | 306° |
| 2026-04-27 23:01 | -23.32415 | 144.47128 | 2575 ft | 167 kts | 306° |
| 2026-04-27 23:02 | -23.31803 | 144.46092 | 2581 ft | 165 kts | 306° |
| 2026-04-27 23:02 | -23.31170 | 144.45022 | 2575 ft | 171 kts | 306° |
| 2026-04-27 23:02 | -23.30511 | 144.43913 | 2468 ft | 182 kts | 306° |
| 2026-04-27 23:02 | -23.29980 | 144.42674 | 2475 ft | 184 kts | 276° |
| 2026-04-27 23:03 | -23.30352 | 144.41387 | 2471 ft | 179 kts | 224° |
| 2026-04-27 23:03 | -23.31340 | 144.40682 | 2462 ft | 166 kts | 203° |
| 2026-04-27 23:03 | -23.32330 | 144.40015 | 2452 ft | 170 kts | 213° |
| 2026-04-27 23:03 | -23.33226 | 144.39158 | 2440 ft | 172 kts | 222° |
| 2026-04-27 23:04 | -23.34054 | 144.38213 | 2433 ft | 172 kts | 224° |
| 2026-04-27 23:04 | -23.34870 | 144.37258 | 2435 ft | 171 kts | 224° |
| 2026-04-27 23:04 | -23.35681 | 144.36328 | 2432 ft | 167 kts | 223° |
| 2026-04-27 23:04 | -23.36459 | 144.35445 | 2424 ft | 162 kts | 222° |
| 2026-04-27 23:05 | -23.37254 | 144.34545 | 2223 ft | 169 kts | 224° |
| 2026-04-27 23:05 | -23.38079 | 144.33604 | 2003 ft | 173 kts | 223° |
| 2026-04-27 23:05 | -23.38911 | 144.32650 | 1764 ft | 174 kts | 224° |
| 2026-04-27 23:05 | -23.39711 | 144.31732 | 1524 ft | 155 kts | 224° |
| 2026-04-27 23:06 | -23.40354 | 144.30993 | 1328 ft | 119 kts | 223° |
| 2026-04-27 23:06 | -23.40800 | 144.30319 | 1247 ft | 105 kts | 240° |
| 2026-04-27 23:06 | -23.41111 | 144.29609 | 1264 ft | 102 kts | 241° |
| 2026-04-27 23:06 | -23.41434 | 144.28901 | 1243 ft | 108 kts | 241° |
| 2026-04-27 23:07 | -23.41790 | 144.28175 | 1326 ft | 110 kts | 233° |
| 2026-04-27 23:07 | -23.42254 | 144.27496 | 1349 ft | 113 kts | 224° |
| 2026-04-27 23:07 | -23.42807 | 144.26847 | 1353 ft | 118 kts | 224° |
| 2026-04-27 23:07 | -23.43367 | 144.26200 | 1388 ft | 113 kts | 221° |
| 2026-04-27 23:08 | -23.43882 | 144.25568 | 1418 ft | 110 kts | 232° |
| 2026-04-27 23:08 | -23.44312 | 144.24870 | 1431 ft | 109 kts | 218° |
| 2026-04-27 23:08 | -23.45004 | 144.24713 | 1312 ft | 103 kts | 148° |
| 2026-04-27 23:08 | -23.45139 | 144.25385 | 1215 ft | 107 kts | 69° |
| 2026-04-27 23:09 | -23.44679 | 144.26067 | 1068 ft | 111 kts | 48° |
| 2026-04-27 23:09 | -23.44166 | 144.26629 | 843 ft | 104 kts | 49° |
| 2026-04-27 23:09 | -23.43691 | 144.27189 | 676 ft | 99 kts | 50° |
| 2026-04-27 23:09 | -23.43280 | 144.27661 | 760 ft | 84 kts | 52° |
| 2026-04-27 23:10 | -23.42809 | 144.28204 | 888 ft | 111 kts | 50° |
| 2026-04-27 23:10 | -23.42230 | 144.28878 | 1069 ft | 128 kts | 47° |
| 2026-04-27 23:10 | -23.41436 | 144.29082 | 1508 ft | 128 kts | 336° |
| 2026-04-27 23:10 | -23.41195 | 144.28178 | 1557 ft | 146 kts | 242° |
| 2026-04-27 23:11 | -23.41850 | 144.27293 | 1514 ft | 157 kts | 227° |
| 2026-04-27 23:11 | -23.42559 | 144.26353 | 1543 ft | 164 kts | 229° |
| 2026-04-27 23:11 | -23.43255 | 144.25395 | 1627 ft | 145 kts | 228° |
| 2026-04-27 23:11 | -23.43817 | 144.24613 | 1577 ft | 124 kts | 228° |
| 2026-04-27 23:12 | -23.44339 | 144.23906 | 1484 ft | 113 kts | 226° |
| 2026-04-27 23:12 | -23.44950 | 144.23556 | 1350 ft | 99 kts | 161° |
| 2026-04-27 23:12 | -23.45322 | 144.24094 | 1232 ft | 92 kts | 101° |
| 2026-04-27 23:12 | -23.45375 | 144.24799 | 1101 ft | 94 kts | 84° |
| 2026-04-27 23:13 | -23.45132 | 144.25472 | 1052 ft | 101 kts | 58° |
| 2026-04-27 23:13 | -23.44653 | 144.26081 | 989 ft | 107 kts | 50° |
| 2026-04-27 23:13 | -23.44203 | 144.26602 | 917 ft | 96 kts | 53° |
| 2026-04-27 23:13 | -23.43753 | 144.27114 | 649 ft | 85 kts | 51° |
| 2026-04-27 23:14 | -23.43414 | 144.27516 | 622 ft | 60 kts | 46° |
| 2026-04-27 23:14 | -23.43202 | 144.27762 | 627 ft | 22 kts | 52° |
| 2026-04-27 23:14 | -23.43164 | 144.27782 | 629 ft | 14 kts | 204° |
| 2026-04-27 23:14 | -23.43269 | 144.27673 | 625 ft | 26 kts | 226° |
| 2026-04-27 23:15 | -23.43392 | 144.27522 | 622 ft | 27 kts | 228° |
| 2026-04-27 23:15 | -23.43513 | 144.27395 | 625 ft | 21 kts | 227° |
| 2026-04-27 23:15 | -23.43610 | 144.27280 | 626 ft | 21 kts | 225° |
| 2026-04-27 23:15 | -23.43708 | 144.27172 | 629 ft | 19 kts | 223° |
| 2026-04-27 23:16 | -23.43781 | 144.27148 | 632 ft | 6 kts | 178° |
| 2026-04-27 23:16 | -23.43831 | 144.27143 | 628 ft | 8 kts | 182° |
| 2026-04-27 23:16 | -23.43868 | 144.27185 | 629 ft | 9 kts | 98° |
| 2026-04-27 23:16 | -23.43847 | 144.27242 | 629 ft | 9 kts | 49° |
| 2026-04-27 23:17 | -23.43835 | 144.27311 | 629 ft | 10 kts | 103° |
| 2026-04-27 23:17 | -23.43858 | 144.27329 | 632 ft | 0 kts | 176° |